Time;durP1;ratioP1;P1;durP2;ratioP2;P2;SDS_P1;SDS_P2;PMS_P1;PMS_P2;Temp;Humidity;BMP_temperature;BMP_pressure;BME280_temperature;BME280_humidity;BME280_pressure;Samples;Min_cycle;Max_cycle;Signal;HPM_P1;HPM_P2
2022/03/05 00:00:48;;;;;;;48.03;23.48;;;;;;;6.24;56.15;99543.19;3154745;28;20448;-67
2022/03/05 00:02:20;;;;;;;43.83;23.95;;;;;;;6.26;56.08;99546.56;3154369;28;20048;-67
2022/03/05 00:03:52;;;;;;;42.05;21.90;;;;;;;6.22;55.86;99535.47;3159161;28;20048;-67
2022/03/05 00:05:24;;;;;;;40.13;23.23;;;;;;;6.25;55.80;99544.88;3155318;28;20040;-67
2022/03/05 00:06:57;;;;;;;41.85;21.73;;;;;;;6.23;55.57;99547.50;3148444;28;20102;-67
2022/03/05 00:08:29;;;;;;;46.30;21.83;;;;;;;6.22;55.52;99544.97;3150796;28;20301;-67
2022/03/05 00:10:00;;;;;;;40.22;22.50;;;;;;;6.14;55.56;99543.47;3153479;28;20041;-67
2022/03/05 00:11:32;;;;;;;43.13;23.05;;;;;;;6.16;55.49;99546.03;3146845;28;20048;-67
2022/03/05 00:13:05;;;;;;;40.05;21.70;;;;;;;6.19;55.38;99560.59;3154942;28;20408;-67
2022/03/05 00:14:37;;;;;;;43.90;21.40;;;;;;;6.14;55.39;99558.13;3149794;28;20587;-67
2022/03/05 00:16:09;;;;;;;41.30;19.70;;;;;;;6.13;55.38;99546.97;3148541;28;20048;-68
2022/03/05 00:17:41;;;;;;;43.17;19.58;;;;;;;5.92;55.11;99519.16;3157023;28;20044;-67
2022/03/05 00:19:13;;;;;;;42.25;18.98;;;;;;;6.04;55.17;99557.59;3156639;28;20133;-68
2022/03/05 00:20:44;;;;;;;41.75;19.40;;;;;;;6.05;55.13;99548.94;3156871;28;20040;-67
2022/03/05 00:22:18;;;;;;;39.13;19.52;;;;;;;6.06;55.01;99542.88;3151401;28;20053;-68
2022/03/05 00:23:49;;;;;;;42.15;20.92;;;;;;;6.01;54.90;99552.50;3146400;28;20136;-68
2022/03/05 00:25:21;;;;;;;35.90;19.38;;;;;;;6.02;54.82;99555.94;3155469;28;20047;-67
2022/03/05 00:26:53;;;;;;;34.38;16.38;;;;;;;6.00;54.61;99550.78;3148424;28;20151;-68
2022/03/05 00:28:25;;;;;;;30.15;16.70;;;;;;;5.99;54.52;99546.53;3147989;28;20152;-68
2022/03/05 00:29:57;;;;;;;32.97;16.65;;;;;;;5.96;54.46;99549.22;3157396;28;20048;-68
2022/03/05 00:31:28;;;;;;;28.05;16.17;;;;;;;5.89;54.42;99542.50;3158824;28;20059;-68
2022/03/05 00:33:00;;;;;;;32.53;16.70;;;;;;;5.92;54.31;99542.41;3155903;28;20059;-67
2022/03/05 00:34:32;;;;;;;33.50;16.48;;;;;;;5.94;54.37;99543.22;3156664;28;20066;-67
2022/03/05 00:36:05;;;;;;;33.25;17.55;;;;;;;5.92;54.36;99550.19;3157202;28;20432;-68
2022/03/05 00:37:38;;;;;;;33.13;16.75;;;;;;;5.91;54.46;99545.88;3152665;28;20445;-68
2022/03/05 00:39:10;;;;;;;;;;;;;;;5.69;54.64;99543.94;3151917;28;20130;-67
2022/03/05 00:40:41;;;;;;;32.75;15.77;;;;;;;5.67;54.65;99530.22;3154976;28;19920;-68
2022/03/05 00:42:13;;;;;;;30.45;15.35;;;;;;;5.77;54.66;99535.97;3147624;28;20056;-68
2022/03/05 00:43:45;;;;;;;28.48;15.50;;;;;;;5.79;54.55;99541.91;3148920;28;20056;-68
2022/03/05 00:45:17;;;;;;;28.00;15.18;;;;;;;5.73;54.37;99533.50;3155861;28;20461;-68
2022/03/05 00:46:49;;;;;;;27.60;14.90;;;;;;;5.75;54.49;99542.06;3145999;28;20052;-67
2022/03/05 00:48:21;;;;;;;27.65;14.82;;;;;;;5.81;54.38;99550.47;3153028;28;20168;-68
2022/03/05 00:49:53;;;;;;;31.60;15.07;;;;;;;5.79;54.39;99551.41;3149511;28;20056;-68
2022/03/05 00:51:25;;;;;;;26.42;14.02;;;;;;;5.75;54.33;99539.50;3156652;28;20120;-68
2022/03/05 00:52:58;;;;;;;29.10;14.95;;;;;;;5.76;54.42;99543.75;3156031;28;20056;-68
2022/03/05 00:54:29;;;;;;;29.67;14.75;;;;;;;5.75;54.45;99552.41;3158530;28;20063;-68
2022/03/05 00:56:01;;;;;;;28.35;15.10;;;;;;;5.70;54.42;99550.78;3157240;28;20053;-67
2022/03/05 00:57:33;;;;;;;27.13;15.48;;;;;;;5.73;54.33;99551.59;3151332;28;20044;-67
2022/03/05 00:59:04;;;;;;;31.42;16.02;;;;;;;5.69;54.41;99546.53;3146599;28;20052;-68
2022/03/05 01:00:37;;;;;;;26.50;13.85;;;;;;;5.50;54.38;99522.09;3156062;28;20051;-67
2022/03/05 01:02:09;;;;;;;26.60;14.18;;;;;;;5.67;54.41;99553.47;3146114;28;20072;-68
2022/03/05 01:03:41;;;;;;;33.50;14.65;;;;;;;5.59;54.37;99539.94;3151154;28;20490;-68
2022/03/05 01:05:13;;;;;;;25.38;13.55;;;;;;;5.64;54.38;99548.38;3152185;28;20708;-68
2022/03/05 01:06:45;;;;;;;22.48;13.30;;;;;;;5.62;54.32;99544.16;3157189;28;20165;-67
2022/03/05 01:08:18;;;;;;;29.23;14.45;;;;;;;5.60;54.36;99539.03;3154022;28;20578;-68
2022/03/05 01:09:50;;;;;;;31.02;14.70;;;;;;;5.58;54.52;99545.13;3155336;28;20085;-67
2022/03/05 01:11:22;;;;;;;26.20;14.88;;;;;;;5.55;54.29;99543.47;3154986;28;20040;-67
2022/03/05 01:12:53;;;;;;;27.50;14.30;;;;;;;5.54;54.41;99541.81;3149859;28;20052;-68
2022/03/05 01:14:24;;;;;;;30.88;16.10;;;;;;;5.50;54.61;99541.91;3147180;28;20446;-68
2022/03/05 01:15:56;;;;;;;26.80;15.40;;;;;;;5.46;54.56;99536.84;3154802;28;20120;-68
2022/03/05 01:17:28;;;;;;;27.15;15.27;;;;;;;5.47;54.61;99546.31;3145894;28;20056;-68
2022/03/05 01:19:00;;;;;;;31.25;15.25;;;;;;;5.47;54.61;99553.19;3151966;28;20049;-68
2022/03/05 01:20:32;;;;;;;30.27;14.85;;;;;;;5.47;54.62;99546.31;3149522;28;20506;-68
2022/03/05 01:22:05;;;;;;;26.38;14.07;;;;;;;5.47;54.65;99545.44;3154573;28;20097;-68
2022/03/05 01:23:38;;;;;;;26.13;13.82;;;;;;;5.43;54.62;99549.84;3155102;28;20052;-67
2022/03/05 01:25:10;;;;;;;27.98;14.65;;;;;;;5.39;54.53;99542.25;3145789;28;20166;-68
2022/03/05 01:26:42;;;;;;;30.85;16.08;;;;;;;5.35;54.84;99538.03;3150815;28;20060;-68
2022/03/05 01:28:14;;;;;;;27.13;15.80;;;;;;;5.34;54.83;99546.69;3152844;28;20114;-68
2022/03/05 01:29:45;;;;;;;31.40;16.35;;;;;;;5.36;54.95;99548.34;3157679;28;20047;-67
2022/03/05 01:31:17;;;;;;;31.23;17.80;;;;;;;5.38;54.94;99556.03;3155287;28;20485;-67
2022/03/05 01:32:49;;;;;;;38.08;19.25;;;;;;;5.36;55.21;99557.81;3151298;28;20047;-68
2022/03/05 01:34:21;;;;;;;39.92;20.65;;;;;;;5.34;55.57;99557.00;3155280;28;20051;-68
2022/03/05 01:35:53;;;;;;;38.38;20.58;;;;;;;5.31;55.79;99560.53;3154524;28;20204;-68
2022/03/05 01:37:25;;;;;;;39.67;20.58;;;;;;;5.09;56.17;99526.72;3156042;28;20135;-68
2022/03/05 01:38:58;;;;;;;44.47;23.45;;;;;;;5.27;56.39;99550.34;3154880;28;20044;-66
2022/03/05 01:40:31;;;;;;;;;;;;;;;5.08;56.56;99558.56;3149742;28;20106;-67
2022/03/05 01:42:04;;;;;;;42.42;21.90;;;;;;;5.12;56.92;99557.59;3145220;28;19925;-67
2022/03/05 01:43:34;;;;;;;50.28;22.60;;;;;;;5.16;57.13;99558.38;3155301;28;20051;-67
2022/03/05 01:45:07;;;;;;;44.20;22.58;;;;;;;5.18;57.36;99559.19;3145115;28;20056;-67
2022/03/05 01:46:40;;;;;;;51.40;23.85;;;;;;;5.16;57.53;99558.38;3150879;28;20064;-67
2022/03/05 01:48:12;;;;;;;46.17;23.50;;;;;;;5.05;57.63;99543.16;3151464;28;20060;-67
2022/03/05 01:49:44;;;;;;;40.00;20.83;;;;;;;5.16;57.63;99561.78;3145428;28;20052;-67
2022/03/05 01:51:16;;;;;;;40.20;19.98;;;;;;;5.15;57.49;99554.09;3155161;28;20052;-67
2022/03/05 01:52:48;;;;;;;39.13;20.23;;;;;;;5.12;57.61;99555.03;3154954;28;20060;-67
2022/03/05 01:54:22;;;;;;;36.70;18.90;;;;;;;5.10;57.63;99556.78;3155559;28;20070;-66
2022/03/05 01:55:55;;;;;;;33.85;18.95;;;;;;;5.05;57.55;99553.47;3152569;28;20133;-66
2022/03/05 01:57:27;;;;;;;37.40;19.70;;;;;;;5.05;57.66;99563.78;3145243;28;20044;-66
2022/03/05 01:58:59;;;;;;;34.88;19.20;;;;;;;5.00;57.70;99561.34;3154347;28;20576;-65
2022/03/05 02:00:31;;;;;;;45.28;22.48;;;;;;;5.04;57.79;99563.84;3150095;28;20048;-67
2022/03/05 02:02:03;;;;;;;44.72;22.08;;;;;;;5.04;57.74;99567.28;3155643;28;20412;-67
2022/03/05 02:03:37;;;;;;;51.85;21.98;;;;;;;5.07;57.85;99566.34;3156556;28;20120;-67
2022/03/05 02:05:10;;;;;;;35.05;18.40;;;;;;;5.02;57.80;99559.56;3157236;28;20079;-66
2022/03/05 02:06:42;;;;;;;35.63;18.73;;;;;;;5.04;57.93;99567.28;3154893;28;20144;-65
2022/03/05 02:08:14;;;;;;;33.67;18.27;;;;;;;4.95;57.93;99554.63;3151101;28;20058;-66
2022/03/05 02:09:47;;;;;;;39.33;17.90;;;;;;;5.00;57.99;99563.94;3155971;28;20051;-68
2022/03/05 02:11:19;;;;;;;32.75;18.63;;;;;;;4.93;57.87;99554.66;3154675;28;20093;-66
2022/03/05 02:12:51;;;;;;;33.72;17.45;;;;;;;4.99;57.94;99562.22;3145057;28;20053;-66
2022/03/05 02:14:23;;;;;;;37.97;20.13;;;;;;;4.98;58.02;99559.69;3151489;28;20066;-66
2022/03/05 02:15:56;;;;;;;42.42;19.75;;;;;;;4.95;58.05;99558.03;3149627;28;20044;-66
2022/03/05 02:17:29;;;;;;;35.33;18.15;;;;;;;4.93;58.10;99558.97;3146418;28;20048;-69
2022/03/05 02:19:02;;;;;;;35.45;18.42;;;;;;;4.90;58.00;99564.19;3154580;28;20142;-68
2022/03/05 02:20:35;;;;;;;31.48;17.70;;;;;;;4.86;58.00;99566.03;3145154;28;20079;-66
2022/03/05 02:22:10;;;;;;;33.75;18.02;;;;;;;4.80;58.08;99561.03;3149979;28;20110;-68
2022/03/05 02:23:42;;;;;;;30.05;17.35;;;;;;;4.79;58.07;99569.63;3150799;28;20059;-67
2022/03/05 02:25:14;;;;;;;33.00;17.63;;;;;;;4.76;58.19;99568.00;3157454;28;20479;-67
2022/03/05 02:26:45;;;;;;;35.95;17.77;;;;;;;4.74;58.09;99562.03;3154331;28;20431;-67
2022/03/05 02:28:16;;;;;;;35.35;18.00;;;;;;;4.71;58.11;99558.69;3145620;28;20132;-68
2022/03/05 02:29:48;;;;;;;34.95;18.83;;;;;;;4.73;58.28;99565.50;3148845;28;20051;-68
2022/03/05 02:31:20;;;;;;;38.08;19.67;;;;;;;4.70;58.31;99569.84;3155007;28;20040;-68
2022/03/05 02:32:52;;;;;;;35.42;18.73;;;;;;;4.68;58.35;99563.91;3157257;28;20048;-68
2022/03/05 02:34:25;;;;;;;33.50;18.38;;;;;;;4.68;58.46;99567.34;3154308;28;20052;-68
2022/03/05 02:35:58;;;;;;;32.55;17.13;;;;;;;4.62;58.24;99546.84;3145897;28;20048;-67
2022/03/05 02:37:30;;;;;;;31.80;17.90;;;;;;;4.67;58.42;99565.63;3149261;28;20055;-68
2022/03/05 02:39:02;;;;;;;37.55;19.95;;;;;;;4.64;58.32;99560.53;3151444;28;20094;-68
2022/03/05 02:40:35;;;;;;;31.08;17.63;;;;;;;4.64;58.36;99560.53;3154804;28;20052;-68
2022/03/05 02:42:07;;;;;;;35.03;18.95;;;;;;;4.65;58.26;99559.69;3153784;28;20101;-68
2022/03/05 02:43:39;;;;;;;41.33;21.98;;;;;;;4.64;58.34;99567.44;3146822;28;20525;-68
2022/03/05 02:45:11;;;;;;;39.75;21.63;;;;;;;4.65;58.43;99564.00;3147974;28;20131;-68
2022/03/05 02:46:43;;;;;;;43.58;20.55;;;;;;;4.63;58.42;99569.16;3153021;28;20117;-68
2022/03/05 02:48:16;;;;;;;42.67;19.83;;;;;;;4.65;58.39;99567.41;3144727;28;20052;-68
2022/03/05 02:49:48;;;;;;;39.88;20.83;;;;;;;4.64;58.64;99568.28;3152059;28;20055;-68
2022/03/05 02:51:21;;;;;;;39.63;21.13;;;;;;;4.64;58.81;99572.59;3154262;28;20040;-68
2022/03/05 02:52:53;;;;;;;46.90;21.75;;;;;;;4.63;58.89;99566.59;3155791;28;20048;-68
2022/03/05 02:54:25;;;;;;;43.13;22.05;;;;;;;4.65;58.92;99572.56;3155366;28;20104;-68
2022/03/05 02:55:57;;;;;;;52.03;28.40;;;;;;;4.65;58.98;99564.84;3152911;28;20051;-68
2022/03/05 02:57:29;;;;;;;50.45;24.70;;;;;;;4.57;59.21;99549.53;3153921;28;20079;-68
2022/03/05 02:59:01;;;;;;;47.50;26.02;;;;;;;4.65;59.48;99567.41;3149674;28;20557;-68
2022/03/05 03:00:33;;;;;;;51.30;28.13;;;;;;;4.65;59.53;99570.00;3146778;28;20121;-68
2022/03/05 03:02:05;;;;;;;60.22;29.55;;;;;;;4.64;59.67;99565.69;3153828;28;20377;-68
2022/03/05 03:03:37;;;;;;;61.42;29.02;;;;;;;4.67;59.69;99563.03;3144033;28;20460;-68
2022/03/05 03:05:09;;;;;;;56.40;30.85;;;;;;;4.58;59.75;99547.78;3149328;28;20056;-68
2022/03/05 03:06:42;;;;;;;48.42;25.83;;;;;;;4.69;59.98;99566.44;3155921;28;20048;-68
2022/03/05 03:08:14;;;;;;;52.42;26.13;;;;;;;4.68;59.81;99563.91;3148477;28;20052;-68
2022/03/05 03:09:46;;;;;;;46.80;24.25;;;;;;;4.64;60.12;99557.97;3158700;28;20040;-68
2022/03/05 03:11:17;;;;;;;50.45;24.92;;;;;;;4.68;60.14;99572.50;3155112;28;20117;-68
2022/03/05 03:12:49;;;;;;;46.70;24.15;;;;;;;4.67;60.14;99567.34;3159240;28;20585;-68
2022/03/05 03:14:21;;;;;;;46.10;23.65;;;;;;;4.68;60.08;99569.06;3155440;28;20054;-68
2022/03/05 03:15:52;;;;;;;44.95;22.52;;;;;;;4.67;60.24;99573.34;3148566;28;20786;-68
2022/03/05 03:17:24;;;;;;;42.33;22.38;;;;;;;4.69;60.19;99571.59;3157390;28;20123;-68
2022/03/05 03:18:56;;;;;;;48.90;22.98;;;;;;;4.66;60.18;99563.09;3151662;28;20048;-67
2022/03/05 03:20:28;;;;;;;45.03;24.25;;;;;;;4.67;60.29;99557.88;3152058;28;20048;-67
2022/03/05 03:22:00;;;;;;;44.63;23.75;;;;;;;4.68;60.25;99574.22;3155477;28;20054;-67
2022/03/05 03:23:32;;;;;;;53.30;24.67;;;;;;;4.70;60.27;99577.59;3148974;28;20426;-68
2022/03/05 03:25:05;;;;;;;43.38;23.38;;;;;;;4.67;60.23;99575.09;3155053;28;20049;-68
2022/03/05 03:26:37;;;;;;;42.72;22.25;;;;;;;4.70;60.34;99582.75;3159168;28;20047;-68
2022/03/05 03:28:09;;;;;;;41.33;22.08;;;;;;;4.68;60.26;99582.81;3159635;28;20059;-67
2022/03/05 03:29:41;;;;;;;50.65;23.40;;;;;;;4.71;60.22;99582.72;3159209;28;20048;-67
2022/03/05 03:31:13;;;;;;;49.15;22.58;;;;;;;4.62;60.23;99570.06;3157487;28;20569;-67
2022/03/05 03:32:45;;;;;;;41.92;23.13;;;;;;;4.45;60.42;99544.69;3158068;28;20055;-67
2022/03/05 03:34:17;;;;;;;47.53;22.60;;;;;;;4.72;60.36;99588.72;3159264;28;20036;-67
2022/03/05 03:35:49;;;;;;;44.65;22.88;;;;;;;4.73;60.54;99588.72;3160775;28;20052;-67
2022/03/05 03:37:22;;;;;;;43.42;22.42;;;;;;;4.75;60.49;99592.06;3157173;28;20044;-68
2022/03/05 03:38:54;;;;;;;48.88;22.83;;;;;;;4.72;60.55;99597.31;3150183;28;20056;-68
2022/03/05 03:40:26;;;;;;;48.95;23.10;;;;;;;4.77;60.42;99594.63;3152980;28;20048;-68
2022/03/05 03:41:58;;;;;;;43.08;21.65;;;;;;;4.79;60.49;99598.00;3156017;28;20610;-68
2022/03/05 03:43:30;;;;;;;45.53;22.73;;;;;;;4.82;60.38;99599.66;3160933;28;20064;-68
2022/03/05 03:45:02;;;;;;;43.25;22.92;;;;;;;4.79;60.47;99588.56;3158106;28;20051;-68
2022/03/05 03:46:33;;;;;;;45.35;22.85;;;;;;;4.79;60.42;99587.69;3158311;28;20090;-68
2022/03/05 03:48:06;;;;;;;45.95;23.08;;;;;;;4.85;60.48;99592.72;3160538;28;20105;-68
2022/03/05 03:49:39;;;;;;;47.15;23.40;;;;;;;4.84;60.58;99593.59;3157824;28;20060;-68
2022/03/05 03:51:11;;;;;;;49.22;24.52;;;;;;;4.87;60.46;99595.25;3159198;28;20044;-68
2022/03/05 03:52:45;;;;;;;44.78;23.33;;;;;;;4.88;60.50;99591.78;3157935;28;20058;-68
2022/03/05 03:54:17;;;;;;;43.75;23.10;;;;;;;4.89;60.39;99589.16;3154297;28;20135;-68
2022/03/05 03:55:49;;;;;;;44.83;23.75;;;;;;;4.91;60.41;99587.41;3148707;28;20113;-68
2022/03/05 03:57:21;;;;;;;43.75;23.27;;;;;;;4.93;60.45;99589.94;3158482;28;20513;-68
2022/03/05 03:58:52;;;;;;;54.30;24.50;;;;;;;4.94;60.40;99595.06;3157108;28;20109;-68
2022/03/05 04:00:24;;;;;;;52.40;25.55;;;;;;;4.96;60.43;99589.84;3159049;28;20051;-68
2022/03/05 04:01:55;;;;;;;50.95;25.25;;;;;;;4.99;60.27;99594.94;3157253;28;20047;-68
2022/03/05 04:03:27;;;;;;;50.55;26.27;;;;;;;5.01;60.16;99593.16;3161189;28;20720;-68
2022/03/05 04:04:59;;;;;;;57.05;27.63;;;;;;;5.02;60.40;99597.44;3158167;28;20055;-69
2022/03/05 04:08:41;;;;;;;52.80;27.00;;;;;;;5.03;60.33;99599.16;3152179;28;20399;-69
2022/03/05 04:08:42;;;;;;;54.78;26.92;;;;;;;5.01;60.35;99594.00;3152583;28;20131;-69
2022/03/05 04:10:12;;;;;;;58.60;28.30;;;;;;;4.96;60.60;99595.84;3154337;28;20049;-69
2022/03/05 04:11:44;;;;;;;59.17;26.08;;;;;;;5.06;60.35;99604.22;3148655;28;20392;-69
2022/03/05 04:13:16;;;;;;;58.38;27.50;;;;;;;5.06;60.22;99601.66;3155904;28;20045;-69
2022/03/05 04:14:48;;;;;;;62.05;26.90;;;;;;;5.12;60.19;99610.97;3157583;28;20085;-66
2022/03/05 04:16:20;;;;;;;57.92;27.05;;;;;;;4.93;60.20;99574.44;3157434;28;20057;-67
2022/03/05 04:17:52;;;;;;;55.72;25.92;;;;;;;4.81;60.14;99552.38;3151144;28;20436;-67
2022/03/05 04:19:24;;;;;;;52.17;26.48;;;;;;;5.11;60.12;99599.78;3146663;28;20509;-66
2022/03/05 04:20:56;;;;;;;50.55;25.65;;;;;;;5.15;60.09;99610.88;3154140;28;20109;-67
2022/03/05 04:22:28;;;;;;;52.78;26.85;;;;;;;5.19;60.10;99610.75;3147649;28;20758;-67
2022/03/05 04:24:01;;;;;;;58.85;27.92;;;;;;;5.21;59.80;99606.41;3150311;28;20521;-66
2022/03/05 04:25:32;;;;;;;58.65;29.08;;;;;;;5.19;60.13;99608.16;3156970;28;20056;-67
2022/03/05 04:27:05;;;;;;;60.35;29.15;;;;;;;5.23;60.13;99608.94;3158934;28;20077;-66
2022/03/05 04:28:36;;;;;;;61.35;29.40;;;;;;;5.23;59.94;99609.81;3154814;28;20054;-67
2022/03/05 04:30:10;;;;;;;57.40;28.17;;;;;;;5.12;60.06;99588.56;3156809;28;20048;-67
2022/03/05 04:31:43;;;;;;;57.42;27.58;;;;;;;5.17;60.01;99597.03;3157066;28;20049;-67
2022/03/05 04:33:14;;;;;;;56.70;27.80;;;;;;;4.93;60.17;99558.97;3154331;28;20051;-67
2022/03/05 04:34:46;;;;;;;54.05;28.27;;;;;;;5.32;60.09;99615.59;3154057;28;20052;-67
2022/03/05 04:36:18;;;;;;;67.65;29.13;;;;;;;5.32;60.11;99613.84;3155902;28;20447;-67
2022/03/05 04:37:51;;;;;;;60.03;28.52;;;;;;;5.33;60.22;99609.56;3149480;28;20060;-67
2022/03/05 04:39:23;;;;;;;59.28;30.42;;;;;;;5.32;60.11;99613.84;3148456;28;20474;-68
2022/03/05 04:40:56;;;;;;;60.60;29.42;;;;;;;5.32;60.16;99615.59;3155311;28;20123;-68
2022/03/05 04:42:27;;;;;;;54.20;27.45;;;;;;;5.30;60.09;99612.22;3145673;28;20898;-68
2022/03/05 04:43:59;;;;;;;57.45;28.02;;;;;;;5.36;60.17;99614.63;3151310;28;20386;-69
2022/03/05 04:45:31;;;;;;;65.38;29.48;;;;;;;5.35;60.03;99612.91;3152889;28;20056;-69
2022/03/05 04:47:04;;;;;;;61.00;29.63;;;;;;;5.33;60.06;99607.81;3157803;28;20051;-69
2022/03/05 04:48:35;;;;;;;71.22;31.33;;;;;;;5.01;60.01;99552.72;3155873;28;20109;-68
2022/03/05 04:50:09;;;;;;;60.03;29.42;;;;;;;5.42;60.03;99612.72;3147402;28;20045;-68
2022/03/05 04:51:41;;;;;;;;;;;;;;;5.23;60.17;99616.69;3156821;28;20538;-68
2022/03/05 04:53:13;;;;;;;77.03;35.58;;;;;;;5.31;60.43;99619.06;3152198;28;19927;-68
2022/03/05 04:54:46;;;;;;;73.03;35.08;;;;;;;5.31;60.32;99603.56;3153846;28;20048;-68
2022/03/05 04:56:18;;;;;;;59.10;31.05;;;;;;;5.39;60.37;99617.13;3154543;28;20052;-68
2022/03/05 04:57:50;;;;;;;50.65;26.63;;;;;;;5.41;60.31;99607.59;3147618;28;20539;-68
2022/03/05 04:59:22;;;;;;;49.42;26.08;;;;;;;5.44;60.45;99617.84;3149442;28;20483;-68
2022/03/05 05:00:53;;;;;;;46.20;24.92;;;;;;;5.45;60.31;99614.38;3154974;28;20109;-68
2022/03/05 05:02:25;;;;;;;46.20;24.77;;;;;;;5.42;60.41;99610.16;3158050;28;20418;-68
2022/03/05 05:03:57;;;;;;;49.50;25.10;;;;;;;5.46;60.57;99616.06;3154314;28;20055;-68
2022/03/05 05:05:29;;;;;;;49.08;25.92;;;;;;;5.47;60.61;99617.75;3146058;28;20056;-67
2022/03/05 05:07:01;;;;;;;45.70;25.40;;;;;;;5.42;60.74;99611.88;3151771;28;20638;-67
2022/03/05 05:08:33;;;;;;;46.90;24.45;;;;;;;5.27;60.90;99587.31;3150499;28;20418;-68
2022/03/05 05:10:07;;;;;;;48.20;25.02;;;;;;;5.48;60.78;99619.47;3146573;28;20494;-68
2022/03/05 05:11:39;;;;;;;46.70;26.55;;;;;;;5.33;61.04;99600.06;3155506;28;20132;-67
2022/03/05 05:13:11;;;;;;;44.50;25.10;;;;;;;5.43;61.54;99616.16;3146173;28;20510;-67
2022/03/05 05:14:43;;;;;;;50.22;27.63;;;;;;;5.53;61.60;99637.41;3150603;28;20056;-67
2022/03/05 05:16:15;;;;;;;48.08;25.25;;;;;;;5.55;61.80;99640.81;3151156;28;20045;-68
2022/03/05 05:17:47;;;;;;;51.28;26.85;;;;;;;5.54;61.86;99637.38;3153341;28;20052;-68
2022/03/05 05:19:30;;;;;;;55.25;26.10;;;;;;;5.54;62.09;99642.53;3155236;28;20055;-68
2022/03/05 05:21:02;;;;;;;45.78;26.67;;;;;;;5.52;62.13;99638.31;3145710;28;20055;-68
2022/03/05 05:22:34;;;;;;;52.45;27.35;;;;;;;5.53;62.29;99639.97;3151867;28;20044;-67
2022/03/05 05:24:07;;;;;;;52.08;25.90;;;;;;;5.52;62.33;99641.72;3150031;28;20056;-68
2022/03/05 05:25:40;;;;;;;46.78;25.65;;;;;;;5.54;62.30;99642.53;3158022;28;20067;-68
2022/03/05 05:27:12;;;;;;;;;;;;;;;5.37;62.41;99642.13;3153760;28;20567;-67
2022/03/05 05:28:43;;;;;;;44.08;24.10;;;;;;;5.42;62.92;99643.72;3151511;28;20286;-68
2022/03/05 05:30:15;;;;;;;47.78;25.25;;;;;;;5.40;62.69;99637.72;3155143;28;20163;-68
2022/03/05 05:31:47;;;;;;;46.53;24.67;;;;;;;5.48;62.58;99647.88;3150615;28;20110;-68
2022/03/05 05:33:20;;;;;;;47.38;26.00;;;;;;;5.51;62.58;99652.94;3156086;28;20052;-68
2022/03/05 05:34:52;;;;;;;52.58;25.98;;;;;;;5.53;62.60;99647.72;3156830;28;20044;-68
2022/03/05 05:36:24;;;;;;;51.58;26.65;;;;;;;5.55;62.73;99651.97;3145110;28;20171;-69
2022/03/05 05:37:56;;;;;;;45.30;25.85;;;;;;;5.57;62.94;99652.78;3149975;28;20109;-69
2022/03/05 05:39:28;;;;;;;49.60;25.05;;;;;;;5.57;62.74;99659.69;3151658;28;20713;-68
2022/03/05 05:41:01;;;;;;;50.10;24.42;;;;;;;5.48;62.55;99651.28;3145741;28;20486;-69
2022/03/05 05:42:33;;;;;;;48.67;24.73;;;;;;;5.52;62.71;99658.97;3154152;28;20048;-68
2022/03/05 05:44:06;;;;;;;44.47;22.13;;;;;;;5.56;62.57;99669.19;3145770;28;20075;-68
2022/03/05 05:45:38;;;;;;;;;;;;;;;5.31;62.65;99673.28;3150990;28;20048;-66
2022/03/05 05:47:09;;;;;;;48.78;24.13;;;;;;;5.39;62.71;99677.38;3151181;28;19920;-68
2022/03/05 05:48:41;;;;;;;43.03;24.35;;;;;;;5.45;62.64;99681.53;3155989;28;20104;-68
2022/03/05 05:50:13;;;;;;;48.35;24.38;;;;;;;5.48;62.67;99682.28;3153600;28;20044;-66
2022/03/05 05:51:44;;;;;;;52.08;24.65;;;;;;;5.52;62.61;99688.22;3156176;28;20048;-67
2022/03/05 05:53:16;;;;;;;40.90;22.08;;;;;;;5.48;62.43;99686.63;3155189;28;20040;-69
2022/03/05 05:54:48;;;;;;;44.20;23.08;;;;;;;5.49;62.17;99690.88;3152282;28;20049;-69
2022/03/05 05:56:21;;;;;;;45.60;22.48;;;;;;;5.52;62.07;99690.81;3145065;28;20052;-67
2022/03/05 05:57:53;;;;;;;44.08;22.80;;;;;;;5.49;61.96;99690.88;3154108;28;20112;-66
2022/03/05 05:59:25;;;;;;;47.17;23.75;;;;;;;5.48;62.00;99696.94;3147785;28;20085;-68
2022/03/05 06:00:57;;;;;;;41.83;23.20;;;;;;;5.52;62.01;99695.13;3149649;28;20048;-66
2022/03/05 06:02:29;;;;;;;50.28;24.58;;;;;;;5.50;61.99;99695.16;3152724;28;20105;-66
2022/03/05 06:04:01;;;;;;;49.28;25.65;;;;;;;5.54;61.86;99689.03;3154015;28;20056;-67
2022/03/05 06:05:32;;;;;;;40.75;22.48;;;;;;;5.54;61.89;99694.19;3154875;28;20048;-67
2022/03/05 06:07:05;;;;;;;46.38;24.48;;;;;;;5.57;61.87;99694.13;3144829;28;20074;-67
2022/03/05 06:08:37;;;;;;;40.75;22.30;;;;;;;5.55;61.96;99695.88;3149275;28;20048;-67
2022/03/05 06:10:10;;;;;;;40.63;22.65;;;;;;;5.52;61.99;99689.97;3153083;28;20071;-67
2022/03/05 06:11:43;;;;;;;36.75;21.83;;;;;;;5.50;62.37;99695.16;3145106;28;20479;-67
2022/03/05 06:13:15;;;;;;;;;;;;;;;5.29;62.69;99706.03;3153341;28;20044;-67
2022/03/05 06:14:47;;;;;;;42.08;22.17;;;;;;;5.34;62.84;99699.03;3147598;28;20319;-67
2022/03/05 06:16:18;;;;;;;41.65;21.92;;;;;;;5.20;62.91;99671.81;3149192;28;20051;-67
2022/03/05 06:17:50;;;;;;;38.42;21.70;;;;;;;5.39;62.74;99712.69;3152406;28;20067;-67
2022/03/05 06:19:22;;;;;;;36.67;21.30;;;;;;;5.33;63.08;99707.69;3152095;28;20052;-67
2022/03/05 06:20:54;;;;;;;44.78;23.60;;;;;;;5.32;63.13;99708.53;3155273;28;20130;-67
2022/03/05 06:22:26;;;;;;;42.13;23.98;;;;;;;5.39;63.03;99710.09;3155539;28;20374;-67
2022/03/05 06:23:58;;;;;;;38.67;23.38;;;;;;;5.47;63.36;99708.16;3159004;28;20101;-67
2022/03/05 06:25:29;;;;;;;41.13;22.63;;;;;;;5.52;63.61;99708.03;3151484;28;20040;-67
2022/03/05 06:27:02;;;;;;;44.60;23.80;;;;;;;5.54;63.69;99711.44;3153842;28;20642;-67
2022/03/05 06:28:34;;;;;;;34.03;20.98;;;;;;;5.56;63.77;99712.22;3153804;28;20075;-67
2022/03/05 06:30:07;;;;;;;40.88;23.23;;;;;;;5.59;63.75;99704.41;3148989;28;20056;-68
2022/03/05 06:31:39;;;;;;;40.47;21.98;;;;;;;5.58;63.75;99700.97;3145970;28;20071;-67
2022/03/05 06:33:11;;;;;;;39.60;23.17;;;;;;;5.63;63.46;99699.13;3154398;28;20101;-67
2022/03/05 06:34:43;;;;;;;44.15;23.85;;;;;;;5.69;63.70;99701.53;3151882;28;20051;-67
2022/03/05 06:36:15;;;;;;;48.95;25.08;;;;;;;5.74;63.81;99713.47;3154784;28;20097;-67
2022/03/05 06:37:47;;;;;;;44.92;24.00;;;;;;;5.76;63.79;99716.88;3150370;28;20052;-67
2022/03/05 06:39:19;;;;;;;38.10;23.20;;;;;;;5.81;63.81;99715.03;3145804;28;20505;-68
2022/03/05 06:40:51;;;;;;;53.13;26.73;;;;;;;5.85;63.85;99716.63;3153134;28;20168;-67
2022/03/05 06:42:24;;;;;;;42.05;24.55;;;;;;;5.89;63.80;99718.25;3144740;28;20052;-67
2022/03/05 06:43:56;;;;;;;;;;;;;;;5.73;63.83;99728.13;3150675;28;20055;-67
2022/03/05 06:45:28;;;;;;;40.45;23.85;;;;;;;5.82;64.13;99724.47;3150023;28;20053;-67
2022/03/05 06:46:59;;;;;;;40.83;23.40;;;;;;;5.90;64.22;99727.69;3150748;28;20048;-67
2022/03/05 06:48:31;;;;;;;45.13;24.83;;;;;;;5.94;64.24;99721.56;3154780;28;20060;-67
2022/03/05 06:50:04;;;;;;;46.28;24.45;;;;;;;6.01;64.18;99728.28;3149493;28;20058;-67
2022/03/05 06:51:36;;;;;;;40.00;24.10;;;;;;;6.10;64.32;99733.19;3152591;28;20108;-67
2022/03/05 06:53:08;;;;;;;41.45;23.45;;;;;;;6.15;64.35;99736.50;3144896;28;20047;-67
2022/03/05 06:54:40;;;;;;;41.80;23.83;;;;;;;6.22;64.23;99732.00;3145499;28;20087;-67
2022/03/05 06:56:12;;;;;;;43.58;24.40;;;;;;;6.26;64.24;99728.44;3143403;28;20611;-66
2022/03/05 06:57:44;;;;;;;47.47;25.48;;;;;;;6.36;64.13;99732.47;3138767;28;20059;-66
2022/03/05 06:59:16;;;;;;;42.35;24.98;;;;;;;6.41;64.15;99737.47;3137149;28;20454;-72
2022/03/05 07:00:49;;;;;;;51.22;26.27;;;;;;;6.43;64.02;99737.44;3143877;28;20143;-64
2022/03/05 07:02:21;;;;;;;44.53;24.15;;;;;;;6.11;63.96;99683.16;3135852;28;20461;-64
2022/03/05 07:03:53;;;;;;;43.22;23.58;;;;;;;6.48;64.00;99751.94;3143361;28;20063;-65
2022/03/05 07:05:25;;;;;;;41.22;24.00;;;;;;;6.50;63.90;99751.88;3138426;28;20507;-65
2022/03/05 07:06:57;;;;;;;48.22;24.92;;;;;;;6.46;63.78;99743.38;3141023;28;20063;-66
2022/03/05 07:08:29;;;;;;;44.22;25.00;;;;;;;6.54;63.83;99751.78;3144915;28;20139;-67
2022/03/05 07:10:01;;;;;;;41.97;25.83;;;;;;;6.54;63.85;99753.50;3134396;28;20544;-67